createdAt,value
2017-09-23T00:01:10.526Z,8.53
2017-09-23T00:03:37.960Z,8.97
2017-09-23T00:06:05.400Z,12.90
2017-09-23T00:08:32.848Z,11.53
2017-09-23T00:11:00.283Z,10.97
2017-09-23T00:13:28.494Z,10.83
2017-09-23T00:15:55.924Z,8.70
2017-09-23T00:18:24.121Z,16.00
2017-09-23T00:20:52.330Z,13.13
2017-09-23T00:23:19.756Z,11.00
2017-09-23T00:25:47.968Z,18.40
2017-09-23T00:28:15.391Z,12.40
2017-09-23T00:30:43.618Z,13.13
2017-09-23T00:33:11.059Z,13.10
2017-09-23T00:35:38.485Z,12.93
2017-09-23T00:38:05.926Z,10.90
2017-09-23T00:40:33.374Z,13.23
2017-09-23T00:43:00.816Z,11.10
2017-09-23T00:45:28.237Z,9.00
2017-09-23T00:47:55.690Z,12.70
2017-09-23T00:50:23.129Z,12.03
2017-09-23T00:52:50.589Z,8.90
2017-09-23T00:55:18.026Z,11.67
2017-09-23T00:57:45.471Z,12.23
2017-09-23T01:00:13.673Z,10.33
2017-09-23T01:02:41.123Z,13.10
2017-09-23T01:05:08.586Z,12.73
2017-09-23T01:07:36.034Z,11.10
2017-09-23T01:10:04.241Z,12.90
2017-09-23T01:12:31.680Z,10.57
2017-09-23T01:14:59.880Z,11.77
2017-09-23T01:17:27.871Z,14.73
2017-09-23T01:19:55.358Z,12.47
2017-09-23T01:33:53.624Z,15.13
2017-09-23T01:36:21.081Z,11.93
2017-09-23T01:38:48.517Z,16.17
2017-09-23T01:41:15.971Z,20.83
2017-09-23T01:43:43.439Z,10.53
2017-09-23T01:46:10.884Z,14.37
2017-09-23T01:48:38.349Z,12.63
2017-09-23T01:51:05.812Z,12.47
2017-09-23T01:53:33.288Z,15.30
2017-09-23T01:56:00.747Z,10.37
2017-09-23T01:58:28.212Z,13.20
2017-09-23T02:00:55.660Z,19.37
2017-09-23T02:03:23.131Z,17.17
2017-09-23T02:05:50.593Z,11.47
2017-09-23T02:08:18.058Z,14.77
2017-09-23T02:10:45.523Z,17.63
2017-09-23T02:13:12.977Z,19.13
2017-09-23T02:15:40.424Z,9.80
2017-09-23T02:18:07.884Z,12.73
2017-09-23T02:20:35.340Z,12.83
2017-09-23T02:23:02.789Z,11.50
2017-09-23T02:25:30.244Z,13.33
2017-09-23T02:27:57.692Z,11.77
2017-09-23T02:30:25.925Z,14.87
2017-09-23T02:32:53.376Z,12.83
2017-09-23T02:35:20.821Z,11.60
2017-09-23T02:37:48.285Z,11.47
2017-09-23T02:40:15.733Z,12.00
2017-09-23T02:42:43.188Z,12.37
2017-09-23T02:45:10.649Z,11.93
2017-09-23T02:47:38.876Z,11.73
2017-09-23T02:50:06.333Z,12.40
2017-09-23T02:52:33.804Z,17.40
2017-09-23T02:55:01.260Z,18.87
2017-09-23T02:57:28.712Z,8.70
2017-09-23T02:59:56.181Z,13.73
2017-09-23T03:02:23.632Z,11.90
2017-09-23T03:04:51.093Z,12.13
2017-09-23T03:07:18.534Z,12.00
2017-09-23T03:09:46.764Z,16.47
2017-09-23T03:12:14.228Z,13.80
2017-09-23T03:14:41.692Z,17.80
2017-09-23T03:17:09.912Z,26.33
2017-09-23T03:19:38.140Z,12.40
2017-09-23T03:22:05.600Z,20.00
2017-09-23T03:24:33.065Z,13.20
2017-09-23T03:27:00.525Z,17.60
2017-09-23T03:29:27.974Z,15.17
2017-09-23T03:31:55.438Z,18.17
2017-09-23T03:34:22.898Z,13.70
2017-09-23T03:36:50.360Z,17.90
2017-09-23T03:39:17.824Z,18.73
2017-09-23T03:41:45.284Z,17.27
2017-09-23T03:44:12.728Z,19.73
2017-09-23T03:46:40.207Z,14.20
2017-09-23T03:49:07.656Z,10.27
2017-09-23T03:51:35.103Z,13.70
2017-09-23T03:54:03.327Z,19.50
2017-09-23T03:56:30.780Z,14.00
2017-09-23T03:58:58.240Z,14.93
2017-09-23T04:01:25.698Z,16.27
2017-09-23T04:03:53.164Z,12.67
2017-09-23T04:06:20.621Z,12.30
2017-09-23T04:08:48.076Z,13.10
2017-09-23T04:11:15.524Z,13.70
2017-09-23T04:13:43.772Z,14.97
2017-09-23T04:16:11.216Z,17.37
2017-09-23T04:18:38.668Z,15.60
2017-09-23T04:21:06.128Z,17.70
2017-09-23T04:23:33.585Z,22.30
2017-09-23T04:26:01.042Z,18.93
2017-09-23T04:28:28.495Z,22.10
2017-09-23T04:30:56.028Z,22.00
2017-09-23T04:33:23.485Z,35.27
2017-09-23T04:35:50.964Z,34.17
2017-09-23T04:38:19.186Z,30.63
2017-09-23T04:40:46.633Z,24.90
2017-09-23T04:43:14.091Z,32.20
2017-09-23T04:45:41.552Z,28.63
2017-09-23T04:48:09.022Z,55.50
2017-09-23T04:50:36.475Z,51.57
2017-09-23T04:53:04.696Z,58.20
2017-09-23T04:55:32.158Z,67.73
2017-09-23T04:57:59.635Z,80.17
2017-09-23T05:00:27.088Z,58.63
2017-09-23T05:02:54.536Z,64.47
2017-09-23T05:05:22.000Z,65.33
2017-09-23T05:07:49.457Z,69.03
2017-09-23T05:10:16.912Z,80.57
2017-09-23T05:12:44.378Z,86.73
2017-09-23T05:15:11.835Z,78.47
2017-09-23T05:17:39.297Z,69.73
2017-09-23T05:20:06.771Z,73.30
2017-09-23T05:22:34.229Z,74.33
2017-09-23T05:25:01.682Z,62.73
2017-09-23T05:27:29.136Z,76.90
2017-09-23T05:29:56.592Z,72.40
2017-09-23T05:32:24.828Z,65.40
2017-09-23T05:34:52.292Z,75.40
2017-09-23T05:37:19.761Z,66.20
2017-09-23T05:39:47.220Z,71.63
2017-09-23T05:42:14.683Z,78.47
2017-09-23T05:44:42.140Z,66.77
2017-09-23T05:47:09.621Z,58.43
2017-09-23T05:49:37.068Z,64.73
2017-09-23T05:52:04.519Z,82.20
2017-09-23T05:54:31.980Z,71.57
2017-09-23T05:56:59.437Z,74.90
2017-09-23T05:59:26.897Z,69.83
2017-09-23T06:01:54.353Z,76.50
2017-09-23T06:04:21.825Z,81.70
2017-09-23T06:06:49.284Z,93.53
2017-09-23T06:09:16.752Z,71.63
2017-09-23T06:11:44.208Z,77.70
2017-09-23T06:14:11.688Z,66.50
2017-09-23T06:16:39.141Z,62.27
2017-09-23T06:19:06.592Z,70.73
2017-09-23T06:21:34.059Z,69.93
2017-09-23T06:24:01.511Z,76.60
2017-09-23T06:26:28.988Z,72.73
2017-09-23T06:28:56.444Z,65.53
2017-09-23T06:31:23.904Z,86.50
2017-09-23T06:33:51.369Z,72.10
2017-09-23T06:36:18.860Z,59.10
2017-09-23T06:38:46.346Z,71.17
2017-09-23T06:41:13.801Z,65.10
2017-09-23T06:43:41.268Z,67.90
2017-09-23T06:46:08.714Z,67.80
2017-09-23T06:48:36.187Z,74.23
2017-09-23T06:51:03.665Z,70.77
2017-09-23T06:53:31.124Z,76.77
2017-09-23T06:55:58.580Z,70.30
2017-09-23T06:58:26.052Z,68.33
2017-09-23T07:00:53.504Z,60.87
2017-09-23T07:03:20.969Z,70.50
2017-09-23T07:05:48.422Z,67.17
2017-09-23T07:08:15.899Z,59.63
2017-09-23T07:10:43.343Z,67.47
2017-09-23T07:13:10.796Z,67.00
2017-09-23T07:15:38.253Z,68.17
2017-09-23T07:18:05.704Z,65.47
2017-09-23T07:20:33.168Z,83.43
2017-09-23T07:23:00.617Z,72.60
2017-09-23T07:25:28.081Z,72.43
2017-09-23T07:27:55.532Z,64.23
2017-09-23T07:30:22.998Z,64.80
2017-09-23T07:32:50.456Z,82.87
2017-09-23T07:35:18.676Z,69.53
2017-09-23T07:37:46.136Z,75.83
2017-09-23T07:40:13.588Z,76.63
2017-09-23T07:42:41.828Z,58.40
2017-09-23T07:45:10.052Z,66.43
2017-09-23T07:47:37.520Z,62.80
2017-09-23T07:50:05.752Z,64.90
2017-09-23T07:52:33.977Z,72.07
2017-09-23T07:55:01.445Z,73.80
2017-09-23T07:57:28.902Z,66.70
2017-09-23T07:59:56.376Z,63.03
2017-09-23T08:02:23.923Z,62.77
2017-09-23T08:04:51.500Z,69.93
2017-09-23T08:07:18.973Z,68.30
2017-09-23T08:09:46.418Z,66.50
2017-09-23T08:12:13.893Z,71.13
2017-09-23T08:14:41.355Z,55.60
2017-09-23T08:17:08.812Z,58.33
2017-09-23T08:19:36.275Z,57.00
2017-09-23T08:22:04.089Z,57.43
2017-09-23T08:24:32.344Z,60.23
2017-09-23T08:26:59.786Z,54.83
2017-09-23T08:29:27.231Z,64.00
2017-09-23T08:31:54.729Z,53.80
2017-09-23T08:34:22.300Z,56.37
2017-09-23T08:36:50.996Z,62.57
2017-09-23T08:39:18.566Z,51.10
2017-09-23T08:41:46.779Z,50.00
2017-09-23T08:44:14.290Z,53.07
2017-09-23T08:46:41.853Z,57.67
2017-09-23T08:49:09.311Z,44.73
2017-09-23T08:51:36.778Z,49.97
2017-09-23T08:54:04.224Z,59.03
2017-09-23T08:56:31.784Z,47.87
2017-09-23T08:58:59.237Z,50.80
2017-09-23T09:01:26.895Z,50.93
2017-09-23T09:03:54.496Z,54.97
2017-09-23T09:06:21.961Z,53.47
2017-09-23T09:08:49.416Z,50.83
2017-09-23T09:11:16.988Z,47.83
2017-09-23T09:13:44.440Z,49.70
2017-09-23T09:16:12.034Z,51.80
2017-09-23T09:18:40.266Z,55.53
2017-09-23T09:21:07.717Z,44.03
2017-09-23T09:23:35.188Z,46.53
2017-09-23T09:26:02.748Z,43.50
2017-09-23T09:28:30.264Z,48.80
2017-09-23T09:30:57.819Z,45.37
2017-09-23T09:33:25.304Z,48.10
2017-09-23T09:35:54.264Z,46.73
2017-09-23T09:38:21.732Z,49.23
2017-09-23T09:40:49.189Z,51.00
2017-09-23T09:43:16.730Z,44.80
2017-09-23T09:45:44.200Z,43.80
2017-09-23T09:48:11.693Z,54.93
2017-09-23T09:50:39.169Z,46.90
2017-09-23T09:53:06.632Z,55.17
2017-09-23T09:58:37.605Z,54.37
2017-09-23T10:01:05.072Z,46.23
2017-09-23T10:03:33.288Z,52.70
2017-09-23T10:06:01.711Z,44.60
2017-09-23T10:08:29.377Z,46.40
2017-09-23T10:10:56.824Z,47.63
2017-09-23T10:13:36.197Z,46.97
2017-09-23T10:16:03.753Z,45.47
2017-09-23T10:18:31.227Z,46.97
2017-09-23T10:20:58.676Z,52.90
2017-09-23T10:23:26.137Z,51.33
2017-09-23T10:25:53.599Z,44.40
2017-09-23T10:28:21.072Z,40.33
2017-09-23T10:30:48.557Z,45.20
2017-09-23T10:33:16.020Z,46.03
2017-09-23T10:35:43.497Z,41.63
2017-09-23T10:38:11.715Z,33.00
2017-09-23T10:40:39.176Z,35.17
2017-09-23T10:43:06.641Z,38.27
2017-09-23T10:45:34.105Z,37.90
2017-09-23T10:48:01.586Z,47.87
2017-09-23T10:50:29.043Z,41.17
2017-09-23T10:52:56.813Z,43.87
2017-09-23T10:55:24.297Z,43.73
2017-09-23T10:57:51.785Z,33.60
2017-09-23T11:00:19.251Z,42.33
2017-09-23T11:02:47.488Z,46.77
2017-09-23T11:05:14.943Z,49.17
2017-09-23T11:07:42.639Z,44.70
2017-09-23T11:10:10.879Z,41.20
2017-09-23T11:12:38.359Z,44.77
2017-09-23T11:15:05.819Z,43.50
2017-09-23T11:17:33.291Z,40.00
2017-09-23T11:20:00.745Z,41.80
2017-09-23T11:22:28.244Z,34.27
2017-09-23T11:24:55.697Z,37.13
2017-09-23T11:27:23.159Z,42.30
2017-09-23T11:29:50.615Z,35.73
2017-09-23T11:32:18.068Z,40.13
2017-09-23T11:34:45.520Z,35.80
2017-09-23T11:37:12.992Z,35.50
2017-09-23T11:39:40.457Z,41.07
2017-09-23T11:42:07.913Z,38.80
2017-09-23T11:44:35.378Z,38.00
2017-09-23T11:47:02.825Z,40.10
2017-09-23T11:49:30.305Z,37.70
2017-09-23T11:51:57.765Z,39.97
2017-09-23T11:54:25.225Z,30.90
2017-09-23T11:56:52.680Z,38.93
2017-09-23T11:59:20.138Z,36.00
2017-09-23T12:01:47.600Z,35.13
2017-09-23T12:04:15.060Z,33.83
2017-09-23T12:06:42.524Z,33.93
2017-09-23T12:09:09.981Z,28.40
2017-09-23T12:11:37.443Z,28.33
2017-09-23T12:14:04.898Z,27.80
2017-09-23T12:16:32.371Z,26.63
2017-09-23T12:18:59.824Z,25.50
2017-09-23T12:21:27.275Z,26.90
2017-09-23T12:23:55.499Z,28.57
2017-09-23T12:26:22.956Z,31.67
2017-09-23T12:28:50.424Z,28.87
2017-09-23T12:31:17.876Z,27.13
2017-09-23T12:33:45.336Z,33.80
2017-09-23T12:36:12.794Z,30.27
2017-09-23T12:38:40.276Z,29.77
2017-09-23T12:41:07.729Z,29.63
2017-09-23T12:43:35.180Z,29.73
2017-09-23T12:46:02.640Z,26.60
2017-09-23T12:48:30.097Z,25.37
2017-09-23T12:50:57.570Z,27.43
2017-09-23T12:53:25.029Z,30.70
2017-09-23T12:55:52.512Z,28.50
2017-09-23T12:58:19.971Z,26.57
2017-09-23T13:00:47.431Z,29.17
2017-09-23T13:03:14.901Z,33.20
2017-09-23T13:05:42.348Z,25.70
2017-09-23T13:08:09.808Z,29.77
2017-09-23T13:10:37.273Z,28.10
2017-09-23T13:13:04.725Z,27.03
2017-09-23T13:15:32.166Z,24.43
2017-09-23T13:18:00.394Z,23.63
2017-09-23T13:20:27.851Z,23.73
2017-09-23T13:22:55.318Z,30.00
2017-09-23T13:25:22.775Z,23.33
2017-09-23T13:27:50.225Z,22.53
2017-09-23T13:30:17.694Z,21.10
2017-09-23T13:32:45.148Z,23.07
2017-09-23T13:35:12.620Z,23.87
2017-09-23T13:37:40.081Z,24.60
2017-09-23T13:40:07.537Z,27.17
2017-09-23T13:42:34.989Z,24.30
2017-09-23T13:45:02.473Z,24.13
2017-09-23T13:47:29.931Z,23.80
2017-09-23T13:49:57.385Z,23.70
2017-09-23T13:52:24.853Z,23.80
2017-09-23T13:54:52.303Z,26.30
2017-09-23T13:57:19.749Z,25.57
2017-09-23T13:59:47.955Z,20.30
2017-09-23T14:02:15.424Z,21.03
2017-09-23T14:04:42.887Z,19.90
2017-09-23T14:07:10.349Z,16.23
2017-09-23T14:09:37.796Z,18.30
2017-09-23T14:12:05.245Z,18.03
2017-09-23T14:14:33.462Z,24.20
2017-09-23T14:17:01.730Z,22.17
2017-09-23T14:19:29.189Z,25.03
2017-09-23T14:21:56.643Z,18.23
2017-09-23T14:24:24.104Z,18.90
2017-09-23T14:26:51.560Z,17.10
2017-09-23T14:29:19.805Z,21.17
2017-09-23T14:31:47.260Z,19.47
2017-09-23T14:34:14.716Z,19.53
2017-09-23T14:36:42.185Z,21.37
2017-09-23T14:39:09.635Z,19.70
2017-09-23T14:41:37.100Z,16.87
2017-09-23T14:44:04.559Z,22.50
2017-09-23T14:46:32.048Z,21.57
2017-09-23T14:48:59.501Z,18.27
2017-09-23T14:51:26.981Z,24.93
2017-09-23T14:53:54.444Z,23.90
2017-09-23T14:56:21.905Z,20.33
2017-09-23T14:58:49.374Z,27.73
2017-09-23T15:01:16.832Z,22.60
2017-09-23T15:03:44.293Z,20.20
2017-09-23T15:06:11.772Z,18.60
2017-09-23T15:08:40.012Z,21.33
2017-09-23T15:11:07.465Z,19.73
2017-09-23T15:13:34.952Z,18.07
2017-09-23T15:16:02.412Z,18.50
2017-09-23T15:18:29.864Z,17.07
2017-09-23T15:20:57.312Z,17.20
2017-09-23T15:23:24.759Z,17.60
2017-09-23T15:25:52.236Z,18.07
2017-09-23T15:28:19.696Z,17.17
2017-09-23T15:30:47.169Z,19.13
2017-09-23T15:33:14.623Z,18.83
2017-09-23T15:35:42.098Z,18.10
2017-09-23T15:38:09.567Z,23.10
2017-09-23T15:40:37.035Z,22.60
2017-09-23T15:43:04.492Z,19.77
2017-09-23T15:45:31.938Z,27.63
2017-09-23T15:47:59.413Z,23.00
2017-09-23T15:50:26.867Z,22.23
2017-09-23T15:52:54.323Z,21.10
2017-09-23T15:55:21.781Z,17.30
2017-09-23T15:57:49.245Z,17.43
2017-09-23T16:00:16.703Z,20.13
2017-09-23T16:02:44.179Z,16.07
2017-09-23T16:05:11.645Z,16.20
2017-09-23T16:07:39.145Z,16.57
2017-09-23T16:10:06.605Z,16.57
2017-09-23T16:12:34.060Z,18.00
2017-09-23T16:15:01.520Z,20.80
2017-09-23T16:17:28.981Z,16.07
2017-09-23T16:19:56.464Z,16.43
2017-09-23T16:22:23.976Z,22.70
2017-09-23T16:24:51.453Z,18.67
2017-09-23T16:27:18.913Z,18.47
2017-09-23T16:29:46.413Z,20.00
2017-09-23T16:32:13.881Z,27.63
2017-09-23T16:34:41.328Z,15.80
2017-09-23T16:37:08.795Z,21.20
2017-09-23T16:39:37.011Z,17.43
2017-09-23T16:42:05.237Z,23.03
2017-09-23T16:44:32.693Z,18.87
2017-09-23T16:47:00.148Z,21.60
2017-09-23T16:49:27.615Z,18.27
2017-09-23T16:51:55.098Z,21.30
2017-09-23T16:54:22.552Z,22.50
2017-09-23T16:56:50.040Z,26.33
2017-09-23T16:59:17.525Z,22.83
2017-09-23T17:01:45.744Z,21.90
2017-09-23T17:04:13.207Z,18.20
2017-09-23T17:06:40.665Z,20.27
2017-09-23T17:09:08.156Z,20.33
2017-09-23T17:11:35.604Z,23.80
2017-09-23T17:14:03.092Z,24.50
2017-09-23T17:16:30.540Z,23.60
2017-09-23T17:18:58.009Z,25.47
2017-09-23T17:21:25.471Z,23.03
2017-09-23T17:23:53.001Z,29.23
2017-09-23T17:26:20.473Z,25.53
2017-09-23T17:28:47.919Z,19.50
2017-09-23T17:31:15.384Z,23.37
2017-09-23T17:33:42.847Z,25.63
2017-09-23T17:36:10.331Z,22.43
2017-09-23T17:38:37.787Z,22.30
2017-09-23T17:41:05.252Z,22.97
2017-09-23T17:43:32.725Z,21.80
2017-09-23T17:46:00.180Z,24.27
2017-09-23T17:48:27.640Z,19.40
2017-09-23T17:50:55.096Z,25.53
2017-09-23T17:53:22.552Z,28.53
2017-09-23T17:55:50.011Z,20.77
2017-09-23T17:58:17.494Z,24.33
2017-09-23T18:00:44.975Z,29.10
2017-09-23T18:03:12.400Z,18.93
2017-09-23T18:05:39.864Z,21.70
2017-09-23T18:08:07.325Z,20.80
2017-09-23T18:10:34.788Z,23.63
2017-09-23T18:13:02.252Z,24.87
2017-09-23T18:15:29.740Z,24.57
2017-09-23T18:17:57.188Z,24.90
2017-09-23T18:20:24.669Z,24.27
2017-09-23T18:22:52.128Z,22.37
2017-09-23T18:25:19.593Z,21.97
2017-09-23T18:27:47.056Z,28.00
2017-09-23T18:30:14.508Z,27.87
2017-09-23T18:32:41.973Z,33.10
2017-09-23T18:35:09.437Z,29.07
2017-09-23T18:37:36.895Z,26.07
2017-09-23T18:40:04.344Z,21.03
2017-09-23T18:42:31.823Z,26.10
2017-09-23T18:44:59.272Z,24.53
2017-09-23T18:47:26.735Z,21.00
2017-09-23T18:49:54.200Z,28.13
2017-09-23T18:52:21.664Z,24.93
2017-09-23T18:54:49.135Z,21.60
2017-09-23T18:57:16.580Z,24.10
2017-09-23T18:59:44.043Z,32.20
2017-09-23T19:02:11.492Z,35.93
2017-09-23T19:04:38.973Z,24.70
2017-09-23T19:07:06.441Z,23.00
2017-09-23T19:09:33.897Z,22.37
2017-09-23T19:12:01.359Z,26.53
2017-09-23T19:14:28.803Z,20.60
2017-09-23T19:16:57.041Z,26.53
2017-09-23T19:19:24.500Z,28.40
2017-09-23T19:21:51.956Z,26.00
2017-09-23T19:24:19.409Z,24.70
2017-09-23T19:26:46.892Z,28.90
2017-09-23T19:29:14.344Z,29.83
2017-09-23T19:31:41.800Z,30.97
2017-09-23T19:34:09.258Z,27.00
2017-09-23T19:36:36.710Z,22.90
2017-09-23T19:39:04.169Z,24.10
2017-09-23T19:41:31.629Z,23.10
2017-09-23T19:43:59.117Z,18.10
2017-09-23T19:46:26.565Z,19.80
2017-09-23T19:48:54.051Z,25.50
2017-09-23T19:51:21.511Z,22.80
2017-09-23T19:53:48.961Z,26.00
2017-09-23T19:56:16.441Z,24.13
2017-09-23T19:58:43.892Z,21.17
2017-09-23T20:01:11.348Z,20.53
2017-09-23T20:06:32.077Z,34.67
2017-09-23T20:08:59.512Z,21.67
2017-09-23T20:11:26.981Z,24.90
2017-09-23T20:13:54.425Z,25.07
2017-09-23T20:22:31.441Z,23.13
2017-09-23T20:33:20.060Z,23.17
2017-09-23T20:35:47.502Z,23.67
2017-09-23T20:38:18.417Z,21.37
2017-09-23T20:40:45.864Z,26.70
2017-09-23T20:43:14.065Z,24.83
2017-09-23T20:45:41.509Z,29.13
2017-09-23T20:48:08.954Z,25.23
2017-09-23T20:50:37.165Z,26.57
2017-09-23T20:53:04.593Z,23.13
2017-09-23T20:55:32.816Z,27.47
2017-09-23T20:58:00.259Z,35.00
2017-09-23T21:00:27.719Z,25.83
2017-09-23T21:02:55.170Z,22.53
2017-09-23T21:05:23.393Z,28.30
2017-09-23T21:07:50.847Z,29.83
2017-09-23T21:10:18.306Z,24.70
2017-09-23T21:12:45.761Z,23.90
2017-09-23T21:15:13.206Z,31.13
2017-09-23T21:17:40.658Z,27.20
2017-09-23T21:20:08.878Z,25.90
2017-09-23T21:22:36.332Z,26.83
2017-09-23T21:25:03.789Z,27.33
2017-09-23T21:27:31.251Z,25.90
2017-09-23T21:29:58.686Z,27.00
2017-09-23T21:32:26.890Z,27.47
2017-09-23T21:34:54.342Z,28.57
2017-09-23T21:37:21.805Z,26.23
2017-09-23T21:39:49.250Z,24.73
2017-09-23T21:42:17.458Z,25.57
2017-09-23T21:44:44.908Z,26.80
2017-09-23T21:47:12.362Z,24.70
2017-09-23T21:49:40.569Z,26.43
2017-09-23T21:52:08.030Z,32.43
2017-09-23T21:54:35.481Z,30.40
2017-09-23T21:57:02.931Z,24.43
2017-09-23T21:59:31.125Z,27.20
2017-09-23T22:01:58.586Z,30.83
2017-09-23T22:04:26.033Z,27.90
2017-09-23T22:06:54.240Z,25.60
2017-09-23T22:09:21.670Z,29.10
2017-09-23T22:11:49.882Z,31.83
2017-09-23T22:14:17.322Z,29.00
2017-09-23T22:16:45.546Z,31.90
2017-09-23T22:19:12.991Z,33.00
2017-09-23T22:21:40.457Z,34.77
2017-09-23T22:24:07.901Z,26.17
2017-09-23T22:26:35.346Z,25.93
2017-09-23T22:29:03.562Z,28.00
2017-09-23T22:31:30.998Z,29.73
2017-09-23T22:33:58.441Z,29.53
2017-09-23T22:36:25.892Z,32.93
2017-09-23T22:38:53.351Z,27.93
2017-09-23T22:41:20.785Z,29.83
2017-09-23T22:43:48.253Z,25.37
2017-09-23T22:46:15.699Z,31.30
2017-09-23T22:48:43.133Z,40.00
2017-09-23T22:51:10.590Z,28.37
2017-09-23T22:53:38.806Z,33.30
2017-09-23T22:56:06.259Z,29.50
2017-09-23T22:58:33.702Z,28.87
2017-09-23T23:01:01.142Z,25.93
2017-09-23T23:03:29.361Z,31.13
2017-09-23T23:05:56.811Z,30.03
2017-09-23T23:08:24.316Z,32.83
2017-09-23T23:10:51.756Z,28.97
2017-09-23T23:13:19.207Z,29.70
2017-09-23T23:15:46.662Z,28.90
2017-09-23T23:18:14.182Z,33.63
2017-09-23T23:20:41.641Z,32.33
2017-09-23T23:23:09.075Z,28.83
2017-09-23T23:25:40.521Z,29.47
2017-09-23T23:28:07.962Z,29.40
2017-09-23T23:30:35.428Z,26.90
2017-09-23T23:33:03.617Z,29.40
2017-09-23T23:35:31.062Z,28.70
2017-09-23T23:37:59.270Z,32.33
2017-09-23T23:40:26.735Z,30.20
2017-09-23T23:42:54.192Z,31.60
2017-09-23T23:45:21.627Z,30.03
2017-09-23T23:47:49.833Z,27.60
2017-09-23T23:50:17.282Z,27.83
2017-09-23T23:52:44.741Z,26.80
2017-09-23T23:55:12.189Z,34.07
2017-09-23T23:57:40.402Z,27.37
